Check out our new BloomSky Weather System.

Active alerts


No alerts


Thunder radar  blitzortung!


Rain radar more information rain snow radar


Visit our other weather sites:

Template documentation
and downloads

And another site



Weather Underground History page Text

Daily Summary for May 12, 2017 Units:  English    Metric   Both
« Previous Day
Next Day »
Daily Weekly Monthly Yearly Custom
  High: Low: Average:
Temperature: 83.5 °F 71.2 °F 76.6 °F
Dew Point: 73.2 °F 58.8 °F 64.7 °F
Humidity: 97 % 48 % 69 %
Wind Speed: 14.0 mph 0.0 mph 3.5 mph
Wind Gust: 18.0 mph - -
Wind:- - West
Pressure: 29.88 in 29.79 in -
Precipitation: 0.14 in    
Historical Graphs
 
 
Tabular Data for May 12, 2017
Time Temperature Dew Point Pressure Wind Wind Speed Wind Gust Humidity Rainfall Rate (Hourly)
00:01 76.3 °F 72.1 °F 29.85 in South 2.0 mph 8.0 mph 87 % 0.00 in
00:07 76.3 °F 72.1 °F 29.85 in South 3.0 mph 8.0 mph 87 % 0.00 in
00:12 76.1 °F 72.0 °F 29.85 in SSW 4.0 mph 8.0 mph 87 % 0.00 in
00:17 76.1 °F 72.3 °F 29.86 in South 1.0 mph 8.0 mph 88 % 0.00 in
00:22 75.9 °F 72.1 °F 29.85 in SSE 2.0 mph 7.0 mph 88 % 0.00 in
00:27 75.9 °F 72.1 °F 29.85 in SSE 3.0 mph 7.0 mph 88 % 0.00 in
00:32 75.9 °F 72.1 °F 29.86 in SSE 2.0 mph 6.0 mph 88 % 0.00 in
00:37 75.9 °F 72.5 °F 29.86 in South 1.0 mph 6.0 mph 89 % 0.00 in
00:42 75.9 °F 72.5 °F 29.86 in SSW 3.0 mph 6.0 mph 89 % 0.00 in
00:47 75.9 °F 72.5 °F 29.85 in South 3.0 mph 5.0 mph 89 % 0.00 in
00:52 75.9 °F 72.5 °F 29.85 in ESE 1.0 mph 5.0 mph 89 % 0.00 in
00:57 75.9 °F 72.5 °F 29.85 in SSE 2.0 mph 5.0 mph 89 % 0.00 in
01:02 75.7 °F 72.3 °F 29.85 in Calm   4.0 mph 89 % 0.00 in
01:07 75.7 °F 72.3 °F 29.85 in Calm   3.0 mph 89 % 0.00 in
01:12 75.7 °F 72.7 °F 29.85 in Calm   3.0 mph 90 % 0.00 in
01:17 75.7 °F 72.7 °F 29.84 in Calm   2.0 mph 90 % 0.00 in
01:22 75.6 °F 72.5 °F 29.84 in Calm   2.0 mph 90 % 0.00 in
01:27 75.6 °F 72.5 °F 29.85 in Calm   2.0 mph 90 % 0.00 in
01:32 75.6 °F 72.5 °F 29.83 in ESE 2.0 mph   90 % 0.01 in
01:37 75.7 °F 72.9 °F 29.83 in SSW 1.0 mph 5.0 mph 91 % 0.10 in
01:42 75.4 °F 72.9 °F 29.83 in SSW 1.0 mph 5.0 mph 92 % 0.14 in
01:47 75.0 °F 72.5 °F 29.83 in Calm   5.0 mph 92 % 0.14 in
01:52 74.8 °F 72.7 °F 29.83 in South 3.0 mph 4.0 mph 93 % 0.14 in
01:57 74.8 °F 73.0 °F 29.83 in SSW 4.0 mph 4.0 mph 94 % 0.14 in
02:02 74.5 °F 72.7 °F 29.82 in SSW 3.0 mph 5.0 mph 94 % 0.14 in
02:07 74.1 °F 72.3 °F 29.82 in SSE 2.0 mph 6.0 mph 94 % 0.14 in
02:12 73.9 °F 72.1 °F 29.82 in SSW 2.0 mph 6.0 mph 94 % 0.14 in
02:17 73.8 °F 72.0 °F 29.83 in South 2.0 mph 6.0 mph 94 % 0.14 in
02:22 73.8 °F 72.0 °F 29.83 in SSE 1.0 mph 4.0 mph 94 % 0.14 in
02:27 73.4 °F 71.6 °F 29.83 in SE 3.0 mph 4.0 mph 94 % 0.14 in
02:32 73.2 °F 71.4 °F 29.83 in Calm   3.0 mph 94 % 0.12 in
02:37 73.0 °F 71.2 °F 29.83 in Calm   3.0 mph 94 % 0.03 in
02:42 72.9 °F 71.1 °F 29.83 in Calm   3.0 mph 94 % 0.00 in
02:47 72.9 °F 71.4 °F 29.83 in Calm   2.0 mph 95 % 0.00 in
02:52 72.9 °F 71.4 °F 29.83 in Calm     95 % 0.00 in
02:57 73.0 °F 71.6 °F 29.83 in Calm     95 % 0.00 in
03:02 73.2 °F 71.8 °F 29.83 in South 1.0 mph 1.0 mph 95 % 0.00 in
03:03 73.2 °F 72.0 °F 29.83 in South 1.0 mph 1.0 mph 96 % 0.00 in
03:08 73.4 °F 72.1 °F 29.83 in Calm   2.0 mph 96 % 0.00 in
03:13 73.4 °F 72.1 °F 29.82 in SSE 2.0 mph 2.0 mph 96 % 0.00 in
03:18 73.6 °F 72.3 °F 29.81 in SW 2.0 mph 2.0 mph 96 % 0.00 in
03:23 73.6 °F 72.3 °F 29.82 in Calm   2.0 mph 96 % 0.00 in
03:28 73.6 °F 72.3 °F 29.81 in Calm   2.0 mph 96 % 0.00 in
03:33 73.6 °F 72.3 °F 29.82 in Calm   2.0 mph 96 % 0.00 in
03:38 73.8 °F 72.5 °F 29.82 in Calm   2.0 mph 96 % 0.00 in
03:43 73.8 °F 72.5 °F 29.83 in Calm   1.0 mph 96 % 0.00 in
03:48 73.9 °F 72.7 °F 29.83 in Calm   1.0 mph 96 % 0.00 in
03:53 73.9 °F 73.0 °F 29.83 in Calm   1.0 mph 97 % 0.00 in
03:58 73.9 °F 73.0 °F 29.82 in Calm   1.0 mph 97 % 0.00 in
04:03 73.9 °F 72.7 °F 29.82 in Calm   1.0 mph 96 % 0.00 in
04:08 73.9 °F 72.7 °F 29.81 in Calm   1.0 mph 96 % 0.00 in
04:13 73.9 °F 73.0 °F 29.80 in Calm     97 % 0.00 in
04:18 73.9 °F 73.0 °F 29.80 in SSW 1.0 mph   97 % 0.00 in
04:23 73.9 °F 73.0 °F 29.80 in Calm   2.0 mph 97 % 0.00 in
04:26 74.1 °F 73.2 °F 29.81 in Calm   5.0 mph 97 % 0.00 in
04:31 74.1 °F 73.2 °F 29.80 in Calm   5.0 mph 97 % 0.00 in
04:36 74.1 °F 73.2 °F 29.79 in South 2.0 mph 5.0 mph 97 % 0.00 in
04:41 74.1 °F 73.2 °F 29.79 in South 3.0 mph 5.0 mph 97 % 0.00 in
04:46 74.1 °F 73.2 °F 29.79 in SSW 4.0 mph 5.0 mph 97 % 0.00 in
04:51 74.1 °F 73.2 °F 29.80 in SSW 1.0 mph 6.0 mph 97 % 0.00 in
04:56 74.1 °F 73.2 °F 29.79 in South 2.0 mph 6.0 mph 97 % 0.00 in
05:01 74.1 °F 73.2 °F 29.79 in SW 4.0 mph 6.0 mph 97 % 0.00 in
05:06 74.1 °F 73.2 °F 29.79 in Calm   6.0 mph 97 % 0.00 in
05:11 74.1 °F 73.2 °F 29.79 in SW 2.0 mph 6.0 mph 97 % 0.00 in
05:16 73.9 °F 73.0 °F 29.79 in SW 1.0 mph 5.0 mph 97 % 0.00 in
05:17 73.9 °F 73.0 °F 29.79 in SW 1.0 mph 5.0 mph 97 % 0.00 in
05:22 73.9 °F 73.0 °F 29.79 in SW 1.0 mph 5.0 mph 97 % 0.00 in
05:27 73.9 °F 73.0 °F 29.79 in Calm   5.0 mph 97 % 0.00 in
05:32 73.9 °F 73.0 °F 29.79 in West 2.0 mph 5.0 mph 97 % 0.00 in
05:37 73.9 °F 73.0 °F 29.80 in West 2.0 mph 5.0 mph 97 % 0.00 in
05:42 73.9 °F 73.0 °F 29.80 in Calm   7.0 mph 97 % 0.00 in
05:47 73.8 °F 72.9 °F 29.80 in SSW 2.0 mph 7.0 mph 97 % 0.00 in
05:52 73.6 °F 72.7 °F 29.80 in WSW 1.0 mph 7.0 mph 97 % 0.00 in
05:57 73.4 °F 72.5 °F 29.80 in SSW 1.0 mph 4.0 mph 97 % 0.00 in
06:02 73.4 °F 72.5 °F 29.80 in Calm   4.0 mph 97 % 0.00 in
06:07 73.4 °F 72.5 °F 29.80 in Calm   3.0 mph 97 % 0.00 in
06:12 73.4 °F 72.5 °F 29.80 in WNW 2.0 mph 3.0 mph 97 % 0.00 in
06:17 73.2 °F 72.3 °F 29.81 in Calm   3.0 mph 97 % 0.00 in
06:22 73.2 °F 72.3 °F 29.81 in Calm   6.0 mph 97 % 0.00 in
06:27 73.2 °F 72.3 °F 29.81 in WNW 1.0 mph 6.0 mph 97 % 0.00 in
06:32 73.2 °F 72.3 °F 29.81 in Calm   6.0 mph 97 % 0.00 in
06:37 73.0 °F 72.1 °F 29.81 in Calm   4.0 mph 97 % 0.00 in
06:42 73.0 °F 72.1 °F 29.81 in Calm   4.0 mph 97 % 0.00 in
06:47 72.9 °F 72.0 °F 29.81 in Calm   3.0 mph 97 % 0.00 in
06:52 72.9 °F 71.6 °F 29.82 in Calm   4.0 mph 96 % 0.00 in
06:57 72.7 °F 71.4 °F 29.82 in West 1.0 mph 4.0 mph 96 % 0.00 in
07:02 72.3 °F 71.1 °F 29.82 in WNW 1.0 mph 6.0 mph 96 % 0.00 in
07:07 72.1 °F 70.9 °F 29.82 in NW 3.0 mph 6.0 mph 96 % 0.00 in
07:12 72.1 °F 70.7 °F 29.82 in WNW 2.0 mph 6.0 mph 95 % 0.00 in
07:17 72.0 °F 70.5 °F 29.83 in West 4.0 mph 5.0 mph 95 % 0.00 in
07:22 71.8 °F 70.0 °F 29.83 in NW 1.0 mph 5.0 mph 94 % 0.00 in
07:27 71.6 °F 69.8 °F 29.83 in North 4.0 mph 7.0 mph 94 % 0.00 in
07:32 71.4 °F 69.3 °F 29.83 in West 5.0 mph 7.0 mph 93 % 0.00 in
07:37 71.8 °F 69.6 °F 29.83 in NW 4.0 mph 9.0 mph 93 % 0.00 in
07:42 71.6 °F 68.9 °F 29.83 in West 3.0 mph 9.0 mph 91 % 0.00 in
07:47 71.6 °F 67.8 °F 29.84 in NW 5.0 mph 9.0 mph 88 % 0.00 in
07:52 71.8 °F 67.1 °F 29.84 in WNW 3.0 mph 8.0 mph 85 % 0.00 in
07:57 72.0 °F 66.9 °F 29.84 in Calm   8.0 mph 84 % 0.00 in
08:02 72.1 °F 65.7 °F 29.84 in North 5.0 mph 8.0 mph 80 % 0.00 in
08:07 72.1 °F 65.7 °F 29.84 in NNW 6.0 mph 9.0 mph 80 % 0.00 in
08:12 72.1 °F 64.9 °F 29.84 in WNW 5.0 mph 9.0 mph 78 % 0.00 in
08:17 72.1 °F 64.6 °F 29.85 in NW 3.0 mph 9.0 mph 77 % 0.00 in
08:22 72.1 °F 64.6 °F 29.85 in NNW 4.0 mph 8.0 mph 77 % 0.00 in
08:27 72.3 °F 64.8 °F 29.85 in NNW 5.0 mph 8.0 mph 77 % 0.00 in
08:32 72.3 °F 63.5 °F 29.85 in NW 5.0 mph 8.0 mph 74 % 0.00 in
08:37 72.5 °F 63.3 °F 29.85 in WNW 6.0 mph 14.0 mph 73 % 0.00 in
08:42 72.1 °F 62.2 °F 29.85 in NW 5.0 mph 14.0 mph 71 % 0.00 in
08:47 72.1 °F 62.2 °F 29.85 in WNW 5.0 mph 15.0 mph 71 % 0.00 in
08:52 72.3 °F 62.8 °F 29.85 in NW 4.0 mph 15.0 mph 72 % 0.00 in
08:57 72.7 °F 62.2 °F 29.86 in West 2.0 mph 15.0 mph 70 % 0.00 in
09:02 72.7 °F 60.3 °F 29.86 in WNW 9.0 mph 17.0 mph 65 % 0.00 in
09:07 72.5 °F 60.1 °F 29.86 in NW 11.0 mph 17.0 mph 65 % 0.00 in
09:12 72.5 °F 59.5 °F 29.86 in NW 5.0 mph 17.0 mph 64 % 0.00 in
09:17 72.7 °F 60.3 °F 29.86 in NNW 8.0 mph 16.0 mph 65 % 0.00 in
09:22 72.9 °F 60.4 °F 29.86 in WNW 5.0 mph 16.0 mph 65 % 0.00 in
09:27 73.0 °F 61.0 °F 29.86 in NW 6.0 mph 15.0 mph 66 % 0.00 in
09:32 73.6 °F 61.5 °F 29.86 in NNW 5.0 mph 12.0 mph 66 % 0.00 in
09:37 73.6 °F 61.2 °F 29.86 in NNW 6.0 mph 12.0 mph 65 % 0.00 in
09:42 73.9 °F 60.6 °F 29.86 in WNW 6.0 mph 12.0 mph 63 % 0.00 in
09:47 73.9 °F 61.3 °F 29.86 in WNW 5.0 mph 12.0 mph 65 % 0.00 in
09:52 73.9 °F 59.7 °F 29.86 in NW 8.0 mph 12.0 mph 61 % 0.00 in
09:57 73.9 °F 60.1 °F 29.86 in NW 6.0 mph 13.0 mph 62 % 0.00 in
10:02 74.5 °F 61.0 °F 29.86 in NNW 4.0 mph 13.0 mph 63 % 0.00 in
10:07 74.7 °F 61.2 °F 29.86 in NNW 5.0 mph 13.0 mph 63 % 0.00 in
10:12 75.0 °F 61.2 °F 29.86 in WNW 10.0 mph 11.0 mph 62 % 0.00 in
10:13 75.0 °F 60.6 °F 29.86 in WNW 5.0 mph 11.0 mph 61 % 0.00 in
10:18 75.6 °F 61.7 °F 29.86 in NNE 1.0 mph 11.0 mph 62 % 0.00 in
10:23 76.1 °F 60.8 °F 29.86 in WNW 2.0 mph 11.0 mph 59 % 0.00 in
10:28 75.7 °F 60.4 °F 29.87 in NW 6.0 mph 10.0 mph 59 % 0.00 in
10:33 75.6 °F 60.3 °F 29.86 in NNW 4.0 mph 10.0 mph 59 % 0.00 in
10:38 75.9 °F 60.1 °F 29.87 in NW 4.0 mph 10.0 mph 58 % 0.00 in
10:43 76.3 °F 59.9 °F 29.87 in WNW 8.0 mph 10.0 mph 57 % 0.00 in
10:48 76.5 °F 60.1 °F 29.86 in NW 6.0 mph 13.0 mph 57 % 0.00 in
10:53 76.5 °F 59.5 °F 29.86 in NW 4.0 mph 13.0 mph 56 % 0.00 in
10:58 76.6 °F 59.7 °F 29.86 in NNW 5.0 mph 13.0 mph 56 % 0.00 in
11:03 76.8 °F 59.4 °F 29.86 in WNW 4.0 mph 11.0 mph 55 % 0.00 in
11:08 77.4 °F 58.8 °F 29.87 in NW 7.0 mph 13.0 mph 53 % 0.00 in
11:13 76.6 °F 59.2 °F 29.87 in NW 6.0 mph 13.0 mph 55 % 0.00 in
11:18 76.8 °F 60.4 °F 29.87 in NNW 8.0 mph 13.0 mph 57 % 0.00 in
11:23 76.8 °F 61.0 °F 29.87 in NW 6.0 mph 13.0 mph 58 % 0.00 in
11:28 77.5 °F 60.1 °F 29.87 in NNW 7.0 mph 13.0 mph 55 % 0.00 in
11:33 77.5 °F 60.1 °F 29.86 in NNW 4.0 mph 16.0 mph 55 % 0.00 in
11:38 78.3 °F 61.3 °F 29.86 in NW 6.0 mph 16.0 mph 56 % 0.00 in
11:43 78.4 °F 61.5 °F 29.86 in NNW 3.0 mph 16.0 mph 56 % 0.00 in
11:48 78.8 °F 59.7 °F 29.86 in NW 1.0 mph 11.0 mph 52 % 0.00 in
11:53 79.0 °F 60.4 °F 29.86 in WNW 3.0 mph 12.0 mph 53 % 0.00 in
11:58 79.2 °F 60.6 °F 29.87 in NW 6.0 mph 12.0 mph 53 % 0.00 in
12:03 78.6 °F 61.2 °F 29.86 in East 1.0 mph 12.0 mph 55 % 0.00 in
12:08 79.2 °F 61.5 °F 29.86 in NW 4.0 mph 11.0 mph 55 % 0.00 in
12:14 79.2 °F 61.5 °F 29.86 in NNW 4.0 mph 11.0 mph 55 % 0.00 in
12:18 79.3 °F 61.2 °F 29.85 in NNW 8.0 mph 16.0 mph 54 % 0.00 in
12:23 79.3 °F 61.2 °F 29.85 in NW 6.0 mph 16.0 mph 54 % 0.00 in
12:29 79.5 °F 61.9 °F 29.85 in NW 3.0 mph 16.0 mph 55 % 0.00 in
12:34 79.9 °F 60.6 °F 29.85 in WNW 7.0 mph 15.0 mph 52 % 0.00 in
12:38 80.2 °F 61.0 °F 29.85 in NW 3.0 mph 16.0 mph 52 % 0.00 in
12:44 80.8 °F 62.1 °F 29.85 in SW 2.0 mph 16.0 mph 53 % 0.00 in
12:49 80.8 °F 61.5 °F 29.85 in WNW 7.0 mph 16.0 mph 52 % 0.00 in
12:54 80.8 °F 61.5 °F 29.85 in NW 7.0 mph 16.0 mph 52 % 0.00 in
12:59 81.1 °F 61.3 °F 29.85 in North 4.0 mph 17.0 mph 51 % 0.00 in
13:04 81.0 °F 61.2 °F 29.84 in WNW 3.0 mph 17.0 mph 51 % 0.00 in
13:09 81.3 °F 61.5 °F 29.84 in NNE 4.0 mph 17.0 mph 51 % 0.00 in
13:14 81.1 °F 60.1 °F 29.84 in NW 10.0 mph 13.0 mph 49 % 0.00 in
13:19 81.5 °F 61.7 °F 29.84 in West 3.0 mph 14.0 mph 51 % 0.00 in
13:24 81.7 °F 61.2 °F 29.84 in WNW 5.0 mph 14.0 mph 50 % 0.00 in
13:29 81.7 °F 61.9 °F 29.83 in West 14.0 mph 14.0 mph 51 % 0.00 in
13:34 81.5 °F 61.0 °F 29.84 in NNW 4.0 mph 16.0 mph 50 % 0.00 in
13:39 81.9 °F 60.8 °F 29.84 in NNW 4.0 mph 16.0 mph 49 % 0.00 in
13:44 81.9 °F 61.3 °F 29.83 in NNW 4.0 mph 16.0 mph 50 % 0.00 in
13:49 81.9 °F 61.3 °F 29.83 in WSW 1.0 mph 15.0 mph 50 % 0.00 in
13:54 82.0 °F 60.4 °F 29.83 in NNW 9.0 mph 15.0 mph 48 % 0.00 in
13:59 82.0 °F 60.4 °F 29.83 in NW 9.0 mph 17.0 mph 48 % 0.00 in
14:04 81.9 °F 61.3 °F 29.83 in North 7.0 mph 17.0 mph 50 % 0.00 in
14:09 81.9 °F 61.9 °F 29.83 in NW 7.0 mph 17.0 mph 51 % 0.00 in
14:14 81.9 °F 61.9 °F 29.83 in NE 7.0 mph 14.0 mph 51 % 0.00 in
14:19 82.2 °F 62.8 °F 29.83 in NNW 5.0 mph 14.0 mph 52 % 0.00 in
14:24 82.6 °F 61.0 °F 29.83 in NW 6.0 mph 14.0 mph 48 % 0.00 in
14:29 82.2 °F 62.2 °F 29.83 in NW 8.0 mph 16.0 mph 51 % 0.00 in
14:34 82.6 °F 62.6 °F 29.83 in WSW 2.0 mph 18.0 mph 51 % 0.00 in
14:39 82.6 °F 61.5 °F 29.83 in NW 4.0 mph 18.0 mph 49 % 0.00 in
14:44 82.6 °F 62.1 °F 29.83 in NW 8.0 mph 18.0 mph 50 % 0.00 in
14:49 82.9 °F 62.4 °F 29.82 in NW 10.0 mph 18.0 mph 50 % 0.00 in
14:54 82.8 °F 62.2 °F 29.82 in NE 6.0 mph 18.0 mph 50 % 0.00 in
14:59 82.9 °F 62.4 °F 29.82 in NW 5.0 mph 15.0 mph 50 % 0.00 in
15:04 83.3 °F 62.8 °F 29.82 in NNW 7.0 mph 16.0 mph 50 % 0.00 in
15:09 82.6 °F 62.1 °F 29.82 in NNE 6.0 mph 16.0 mph 50 % 0.00 in
15:14 82.2 °F 61.7 °F 29.81 in WNW 4.0 mph 16.0 mph 50 % 0.00 in
15:19 82.4 °F 61.9 °F 29.81 in NW 9.0 mph 15.0 mph 50 % 0.00 in
15:24 82.6 °F 62.6 °F 29.81 in WNW 8.0 mph 16.0 mph 51 % 0.00 in
15:29 82.6 °F 61.5 °F 29.81 in East 3.0 mph 16.0 mph 49 % 0.00 in
15:34 82.8 °F 62.2 °F 29.81 in North 9.0 mph 16.0 mph 50 % 0.00 in
15:39 82.9 °F 62.4 °F 29.81 in South 2.0 mph 15.0 mph 50 % 0.00 in
15:44 82.4 °F 62.4 °F 29.81 in WNW 6.0 mph 15.0 mph 51 % 0.00 in
15:49 82.4 °F 61.9 °F 29.81 in WNW 8.0 mph 16.0 mph 50 % 0.00 in
15:54 82.0 °F 61.0 °F 29.81 in WNW 5.0 mph 16.0 mph 49 % 0.00 in
15:59 82.2 °F 61.2 °F 29.81 in NNW 4.0 mph 16.0 mph 49 % 0.00 in
16:04 81.5 °F 61.0 °F 29.81 in NW 4.0 mph 14.0 mph 50 % 0.00 in
16:09 81.5 °F 61.0 °F 29.81 in NW 9.0 mph 13.0 mph 50 % 0.00 in
16:14 81.3 °F 61.5 °F 29.81 in NNW 6.0 mph 14.0 mph 51 % 0.00 in
16:19 80.8 °F 61.0 °F 29.81 in NNW 4.0 mph 14.0 mph 51 % 0.00 in
16:24 81.1 °F 61.9 °F 29.80 in SW 5.0 mph 14.0 mph 52 % 0.00 in
16:29 81.1 °F 60.8 °F 29.80 in NNW 7.0 mph 11.0 mph 50 % 0.00 in
16:34 81.7 °F 61.9 °F 29.81 in WNW 10.0 mph 15.0 mph 51 % 0.00 in
16:39 81.9 °F 60.8 °F 29.80 in NW 3.0 mph 15.0 mph 49 % 0.00 in
16:44 82.0 °F 61.5 °F 29.80 in NW 4.0 mph 15.0 mph 50 % 0.00 in
16:49 82.0 °F 61.5 °F 29.80 in NW 6.0 mph 13.0 mph 50 % 0.00 in
16:54 82.2 °F 61.7 °F 29.80 in WNW 6.0 mph 12.0 mph 50 % 0.00 in
16:59 82.8 °F 62.2 °F 29.80 in NNW 2.0 mph 13.0 mph 50 % 0.00 in
17:04 82.6 °F 61.5 °F 29.80 in NNW 6.0 mph 13.0 mph 49 % 0.00 in
17:09 82.6 °F 62.1 °F 29.80 in NNW 4.0 mph 13.0 mph 50 % 0.00 in
17:11 82.8 °F 62.2 °F 29.80 in NNW 10.0 mph 12.0 mph 50 % 0.00 in
17:16 82.8 °F 62.2 °F 29.80 in West 5.0 mph 12.0 mph 50 % 0.00 in
17:21 82.9 °F 62.4 °F 29.79 in SW 1.0 mph 12.0 mph 50 % 0.00 in
17:26 83.5 °F 61.7 °F 29.80 in NNW 6.0 mph 12.0 mph 48 % 0.00 in
17:31 83.5 °F 62.2 °F 29.79 in NNW 5.0 mph 11.0 mph 49 % 0.00 in
17:36 83.1 °F 61.3 °F 29.79 in NW 4.0 mph 17.0 mph 48 % 0.00 in
17:41 82.9 °F 62.4 °F 29.79 in NW 4.0 mph 17.0 mph 50 % 0.00 in
17:46 82.9 °F 62.4 °F 29.79 in WNW 8.0 mph 17.0 mph 50 % 0.00 in
17:51 82.0 °F 61.5 °F 29.79 in WNW 3.0 mph 14.0 mph 50 % 0.00 in
17:56 81.5 °F 61.7 °F 29.80 in NW 4.0 mph 12.0 mph 51 % 0.00 in
18:01 81.5 °F 62.2 °F 29.80 in WNW 2.0 mph 12.0 mph 52 % 0.00 in
18:06 81.7 °F 61.9 °F 29.80 in NNW 6.0 mph 11.0 mph 51 % 0.00 in
18:11 81.1 °F 60.8 °F 29.80 in NW 4.0 mph 11.0 mph 50 % 0.00 in
18:16 80.8 °F 61.0 °F 29.80 in NW 7.0 mph 11.0 mph 51 % 0.00 in
18:21 80.8 °F 61.0 °F 29.79 in NNW 7.0 mph 11.0 mph 51 % 0.00 in
18:26 81.3 °F 61.5 °F 29.80 in NNW 1.0 mph 11.0 mph 51 % 0.00 in
18:31 81.5 °F 61.0 °F 29.79 in NNW 10.0 mph 17.0 mph 50 % 0.00 in
18:36 81.7 °F 60.6 °F 29.79 in NNW 6.0 mph 17.0 mph 49 % 0.00 in
18:41 81.9 °F 60.8 °F 29.80 in North 4.0 mph 17.0 mph 49 % 0.00 in
18:46 81.7 °F 60.6 °F 29.80 in WNW 7.0 mph 12.0 mph 49 % 0.00 in
18:51 81.1 °F 60.8 °F 29.80 in NW 11.0 mph 12.0 mph 50 % 0.00 in
18:56 80.6 °F 60.3 °F 29.80 in NW 5.0 mph 13.0 mph 50 % 0.00 in
19:01 80.6 °F 60.8 °F 29.80 in NNW 9.0 mph 13.0 mph 51 % 0.00 in
19:06 80.8 °F 61.0 °F 29.80 in WNW 4.0 mph 13.0 mph 51 % 0.00 in
19:11 80.8 °F 61.0 °F 29.80 in WNW 4.0 mph 11.0 mph 51 % 0.00 in
19:16 80.4 °F 60.6 °F 29.80 in NW 5.0 mph 12.0 mph 51 % 0.00 in
19:21 80.2 °F 60.4 °F 29.80 in NW 7.0 mph 13.0 mph 51 % 0.00 in
19:26 79.9 °F 60.1 °F 29.80 in NNW 6.0 mph 13.0 mph 51 % 0.00 in
19:31 79.7 °F 59.9 °F 29.81 in NW 4.0 mph 13.0 mph 51 % 0.00 in
19:36 79.5 °F 60.4 °F 29.80 in West 5.0 mph 13.0 mph 52 % 0.00 in
19:41 79.3 °F 60.3 °F 29.81 in NW 4.0 mph 11.0 mph 52 % 0.00 in
19:46 79.0 °F 59.9 °F 29.81 in NW 4.0 mph 12.0 mph 52 % 0.00 in
19:51 78.8 °F 59.7 °F 29.81 in NW 4.0 mph 12.0 mph 52 % 0.00 in
19:56 78.6 °F 59.5 °F 29.81 in NNW 4.0 mph 12.0 mph 52 % 0.00 in
20:02 78.4 °F 59.9 °F 29.81 in NW 9.0 mph 12.0 mph 53 % 0.00 in
20:07 78.3 °F 59.7 °F 29.81 in NW 8.0 mph 13.0 mph 53 % 0.00 in
20:12 78.1 °F 59.5 °F 29.81 in NW 7.0 mph 13.0 mph 53 % 0.00 in
20:17 77.7 °F 59.2 °F 29.81 in North 8.0 mph 13.0 mph 53 % 0.00 in
20:22 77.5 °F 59.5 °F 29.82 in North 3.0 mph 11.0 mph 54 % 0.00 in
20:27 77.4 °F 59.4 °F 29.82 in NW 4.0 mph 11.0 mph 54 % 0.00 in
20:32 77.2 °F 59.7 °F 29.82 in NW 3.0 mph 8.0 mph 55 % 0.00 in
20:37 77.2 °F 59.7 °F 29.82 in NW 6.0 mph 8.0 mph 55 % 0.00 in
20:42 77.0 °F 59.5 °F 29.83 in North 3.0 mph 7.0 mph 55 % 0.00 in
20:47 76.8 °F 59.9 °F 29.83 in NNW 4.0 mph 7.0 mph 56 % 0.00 in
20:52 76.6 °F 59.7 °F 29.83 in NNW 2.0 mph 7.0 mph 56 % 0.00 in
20:57 76.5 °F 60.1 °F 29.83 in NNW 2.0 mph 7.0 mph 57 % 0.00 in
21:02 76.3 °F 59.9 °F 29.83 in NW 2.0 mph 7.0 mph 57 % 0.00 in
21:07 76.1 °F 59.7 °F 29.83 in NW 2.0 mph 6.0 mph 57 % 0.00 in
21:12 75.9 °F 60.1 °F 29.83 in NNW 3.0 mph 6.0 mph 58 % 0.00 in
21:17 75.7 °F 59.9 °F 29.83 in NW 1.0 mph 6.0 mph 58 % 0.00 in
21:22 75.6 °F 60.3 °F 29.83 in NNW 2.0 mph 6.0 mph 59 % 0.00 in
21:24 75.4 °F 60.1 °F 29.83 in NNW 2.0 mph 6.0 mph 59 % 0.00 in
21:29 75.2 °F 59.9 °F 29.83 in NNW 2.0 mph 5.0 mph 59 % 0.00 in
21:34 74.8 °F 60.1 °F 29.83 in NW 1.0 mph 4.0 mph 60 % 0.00 in
21:39 74.7 °F 59.9 °F 29.83 in NW 1.0 mph 4.0 mph 60 % 0.00 in
21:44 74.5 °F 60.1 °F 29.84 in NW 2.0 mph 4.0 mph 61 % 0.00 in
21:49 74.3 °F 59.9 °F 29.84 in Calm   4.0 mph 61 % 0.00 in
21:54 73.9 °F 60.1 °F 29.84 in Calm   4.0 mph 62 % 0.00 in
21:59 73.9 °F 60.1 °F 29.85 in NW 1.0 mph 4.0 mph 62 % 0.00 in
22:04 73.9 °F 60.1 °F 29.85 in WNW 2.0 mph 4.0 mph 62 % 0.00 in
22:09 73.8 °F 59.9 °F 29.85 in Calm   4.0 mph 62 % 0.00 in
22:14 73.6 °F 60.3 °F 29.86 in West 1.0 mph 4.0 mph 63 % 0.00 in
22:19 73.2 °F 59.9 °F 29.86 in Calm   3.0 mph 63 % 0.00 in
22:24 73.2 °F 60.3 °F 29.86 in WNW 1.0 mph 3.0 mph 64 % 0.00 in
22:29 73.2 °F 60.3 °F 29.86 in WNW 3.0 mph 6.0 mph 64 % 0.00 in
22:34 73.2 °F 60.3 °F 29.86 in NW 2.0 mph 6.0 mph 64 % 0.00 in
22:39 73.2 °F 60.3 °F 29.86 in NW 2.0 mph 6.0 mph 64 % 0.00 in
22:44 73.2 °F 60.3 °F 29.87 in NW 7.0 mph 8.0 mph 64 % 0.00 in
22:49 73.2 °F 60.3 °F 29.86 in Calm   9.0 mph 64 % 0.00 in
22:54 72.9 °F 59.9 °F 29.86 in NW 2.0 mph 9.0 mph 64 % 0.00 in
22:56 72.9 °F 59.9 °F 29.86 in Calm   9.0 mph 64 % 0.00 in
23:01 72.9 °F 59.9 °F 29.86 in Calm   4.0 mph 64 % 0.00 in
23:06 72.5 °F 60.1 °F 29.87 in Calm   4.0 mph 65 % 0.00 in
23:11 72.1 °F 60.1 °F 29.87 in Calm   3.0 mph 66 % 0.00 in
23:16 71.8 °F 60.3 °F 29.87 in NW 1.0 mph 4.0 mph 67 % 0.00 in
23:21 71.8 °F 60.3 °F 29.87 in North 3.0 mph 7.0 mph 67 % 0.00 in
23:26 72.0 °F 60.4 °F 29.87 in NW 2.0 mph 7.0 mph 67 % 0.00 in
23:31 72.0 °F 60.4 °F 29.87 in NNW 2.0 mph 7.0 mph 67 % 0.00 in
23:36 71.8 °F 60.3 °F 29.88 in NW 3.0 mph 6.0 mph 67 % 0.00 in
23:41 71.6 °F 60.1 °F 29.88 in NNW 3.0 mph 5.0 mph 67 % 0.00 in
23:46 71.4 °F 59.9 °F 29.88 in WNW 3.0 mph 5.0 mph 67 % 0.00 in
23:51 71.4 °F 60.3 °F 29.88 in NNW 3.0 mph 5.0 mph 68 % 0.00 in
23:56 71.2 °F 60.1 °F 29.88 in NW 1.0 mph 5.0 mph 68 % 0.00 in
Spring, Texas: Villages of Bridgestone
Compliments of Weather Underground - 2.75 mb

Script developed by  Jim McMurry - jmcmurry@mwt.net Adapted for the template by  Wim van der Kuil - Leuven-Template.eu

You find our weather info also at:

UK Metoffice

WeatherCloud

Weather Underground

Mid-South Weather Network

AWEKAS

Citizen Weather Observer Program (CWOP)

HAMweather, WeatherForYou, PWS Weather

Equipment we use:

Weather-station
Davis Vantage Vue

Weather-program
Meteohub

Weather-server
Debian 7.9 x86 (Guest)

Provider
DreamHost

Davis Vantage Vue

Meteohub

Debian 7.9 x86 (Guest)

DreamHost